createdAt,value
2024-03-30T00:00:01.244Z,2.30
2024-03-30T00:02:28.442Z,6.00
2024-03-30T00:04:55.802Z,2.40
2024-03-30T00:09:49.489Z,2.10
2024-03-30T00:12:16.380Z,2.70
2024-03-30T00:14:43.113Z,2.70
2024-03-30T00:17:10.219Z,6.10
2024-03-30T00:19:39.987Z,2.50
2024-03-30T00:22:06.328Z,2.10
2024-03-30T00:24:34.057Z,4.40
2024-03-30T00:27:00.355Z,2.60
2024-03-30T00:29:26.644Z,2.10
2024-03-30T00:31:52.904Z,1.60
2024-03-30T00:34:19.252Z,2.30
2024-03-30T00:36:45.533Z,2.30
2024-03-30T00:39:14.734Z,1.80
2024-03-30T00:41:41.066Z,2.10
2024-03-30T00:44:07.352Z,1.70
2024-03-30T00:46:33.654Z,1.60
2024-03-30T00:49:00.476Z,2.10
2024-03-30T00:51:27.101Z,1.80
2024-03-30T00:53:53.444Z,2.90
2024-03-30T00:56:19.798Z,2.40
2024-03-30T00:58:46.216Z,2.70
2024-03-30T01:01:13.078Z,3.30
2024-03-30T01:03:39.348Z,1.90
2024-03-30T01:06:05.688Z,2.40
2024-03-30T01:08:31.998Z,2.70
2024-03-30T01:11:01.272Z,2.50
2024-03-30T01:13:28.670Z,2.50
2024-03-30T01:18:22.446Z,1.50
2024-03-30T01:20:52.511Z,2.00
2024-03-30T01:23:20.242Z,2.30
2024-03-30T01:25:47.687Z,3.10
2024-03-30T01:30:40.907Z,2.00
2024-03-30T01:33:08.223Z,3.60
2024-03-30T01:35:34.618Z,3.50
2024-03-30T01:38:00.922Z,3.10
2024-03-30T01:40:32.982Z,4.60
2024-03-30T01:43:02.721Z,2.70
2024-03-30T01:45:33.512Z,3.50
2024-03-30T01:48:03.016Z,4.10
2024-03-30T01:50:31.680Z,2.60
2024-03-30T01:52:59.843Z,4.00
2024-03-30T01:55:26.612Z,4.00
2024-03-30T01:57:54.146Z,3.70
2024-03-30T02:00:20.663Z,6.00
2024-03-30T02:02:47.325Z,4.00
2024-03-30T02:05:14.273Z,4.40
2024-03-30T02:07:42.669Z,5.10
2024-03-30T02:10:09.723Z,3.00
2024-03-30T02:12:36.273Z,4.30
2024-03-30T02:15:02.653Z,5.40
2024-03-30T02:17:29.030Z,3.50
2024-03-30T02:19:58.524Z,4.00
2024-03-30T02:22:25.416Z,4.10
2024-03-30T02:24:51.846Z,3.40
2024-03-30T02:27:18.141Z,3.60
2024-03-30T02:29:50.637Z,4.80
2024-03-30T02:32:17.651Z,3.50
2024-03-30T02:34:44.163Z,4.80
2024-03-30T02:37:11.808Z,2.30
2024-03-30T02:39:38.258Z,3.90
2024-03-30T02:42:04.764Z,2.90
2024-03-30T02:44:31.250Z,3.10
2024-03-30T02:46:57.622Z,4.50
2024-03-30T02:49:24.270Z,3.10
2024-03-30T02:51:50.539Z,3.60
2024-03-30T02:54:16.927Z,2.90
2024-03-30T02:56:43.225Z,5.00
2024-03-30T02:59:09.724Z,2.90
2024-03-30T03:01:38.037Z,5.00
2024-03-30T03:04:04.932Z,5.00
2024-03-30T03:06:31.548Z,4.00
2024-03-30T03:08:57.825Z,2.60
2024-03-30T03:11:24.357Z,2.90
2024-03-30T03:13:50.711Z,3.80
2024-03-30T03:16:16.992Z,2.70
2024-03-30T03:18:43.292Z,4.40
2024-03-30T03:21:09.602Z,9.30
2024-03-30T03:23:35.900Z,3.20
2024-03-30T03:26:02.457Z,4.10
2024-03-30T03:28:28.839Z,3.10
2024-03-30T03:30:55.117Z,4.40
2024-03-30T03:33:21.626Z,4.20
2024-03-30T03:35:48.073Z,2.60
2024-03-30T03:38:14.446Z,5.80
2024-03-30T03:40:40.756Z,3.00
2024-03-30T03:43:07.058Z,5.70
2024-03-30T03:45:36.466Z,4.90
2024-03-30T03:48:03.205Z,5.00
2024-03-30T03:50:29.489Z,4.60
2024-03-30T03:52:55.832Z,4.30
2024-03-30T03:55:22.144Z,4.20
2024-03-30T03:57:48.444Z,3.60
2024-03-30T04:00:14.832Z,3.40
2024-03-30T04:02:41.106Z,4.50
2024-03-30T04:05:07.446Z,5.10
2024-03-30T04:07:33.726Z,3.10
2024-03-30T04:10:00.207Z,7.40
2024-03-30T04:12:26.702Z,2.90
2024-03-30T04:14:53.052Z,7.00
2024-03-30T04:17:19.355Z,5.60
2024-03-30T04:19:45.630Z,4.90
2024-03-30T04:22:11.919Z,2.60
2024-03-30T04:24:38.238Z,2.80
2024-03-30T04:27:05.679Z,7.10
2024-03-30T04:29:32.044Z,4.50
2024-03-30T04:31:58.358Z,2.90
2024-03-30T04:34:25.748Z,4.40
2024-03-30T04:39:18.272Z,4.80
2024-03-30T04:41:44.544Z,6.20
2024-03-30T04:44:10.828Z,2.70
2024-03-30T04:46:37.101Z,3.40
2024-03-30T04:49:03.372Z,7.40
2024-03-30T04:51:29.668Z,4.00
2024-03-30T04:53:55.919Z,5.30
2024-03-30T04:56:22.414Z,4.90
2024-03-30T04:58:48.681Z,5.90
2024-03-30T05:01:17.165Z,4.90
2024-03-30T05:03:43.535Z,6.30
2024-03-30T05:06:09.846Z,7.30
2024-03-30T05:08:36.151Z,6.70
2024-03-30T05:11:02.468Z,7.10
2024-03-30T05:13:29.080Z,5.90
2024-03-30T05:15:55.602Z,5.10
2024-03-30T05:18:23.524Z,3.60
2024-03-30T05:20:59.230Z,6.10
2024-03-30T05:23:28.302Z,5.60
2024-03-30T05:25:56.887Z,4.50
2024-03-30T05:28:28.314Z,4.60
2024-03-30T05:30:55.849Z,5.00
2024-03-30T05:33:24.645Z,7.10
2024-03-30T05:35:52.693Z,4.10
2024-03-30T05:38:19.770Z,5.40
2024-03-30T05:40:47.574Z,5.60
2024-03-30T05:43:14.266Z,7.30
2024-03-30T05:45:42.909Z,6.40
2024-03-30T05:48:09.909Z,7.30
2024-03-30T05:50:37.241Z,8.10
2024-03-30T05:55:30.039Z,6.90
2024-03-30T05:57:56.591Z,8.40
2024-03-30T06:00:23.554Z,7.30
2024-03-30T06:02:50.266Z,7.30
2024-03-30T06:05:16.684Z,9.20
2024-03-30T06:07:44.074Z,3.80
2024-03-30T06:12:39.053Z,8.00
2024-03-30T06:17:37.395Z,9.00
2024-03-30T06:20:09.645Z,5.30
2024-03-30T06:22:39.388Z,4.30
2024-03-30T06:25:06.929Z,6.00
2024-03-30T06:27:34.850Z,4.60
2024-03-30T06:30:01.849Z,7.30
2024-03-30T06:34:54.715Z,8.00
2024-03-30T06:37:21.533Z,4.80
2024-03-30T06:40:06.679Z,10.70
2024-03-30T06:42:51.995Z,7.80
2024-03-30T06:45:18.323Z,5.90
2024-03-30T06:47:44.634Z,8.70
2024-03-30T06:50:11.222Z,9.10
2024-03-30T06:52:37.579Z,6.50
2024-03-30T06:55:04.113Z,8.40
2024-03-30T06:57:31.554Z,9.60
2024-03-30T06:59:58.231Z,8.20
2024-03-30T07:02:25.190Z,5.50
2024-03-30T07:04:51.626Z,11.20
2024-03-30T07:07:17.918Z,8.40
2024-03-30T07:09:44.370Z,5.60
2024-03-30T07:12:10.687Z,9.40
2024-03-30T07:14:37.172Z,8.50
2024-03-30T07:17:14.187Z,14.00
2024-03-30T07:19:42.128Z,8.70
2024-03-30T07:22:08.463Z,11.70
2024-03-30T07:24:37.401Z,6.40
2024-03-30T07:27:05.283Z,6.70
2024-03-30T07:29:33.130Z,5.50
2024-03-30T07:32:01.838Z,7.80
2024-03-30T07:34:28.198Z,5.50
2024-03-30T07:36:54.524Z,7.90
2024-03-30T07:39:21.048Z,8.00
2024-03-30T07:41:47.407Z,7.00
2024-03-30T07:44:13.903Z,11.40
2024-03-30T07:46:40.221Z,10.70
2024-03-30T07:49:06.546Z,10.80
2024-03-30T07:51:32.840Z,11.60
2024-03-30T07:53:59.144Z,12.40
2024-03-30T07:56:26.662Z,11.00
2024-03-30T07:58:53.076Z,12.80
2024-03-30T08:01:19.472Z,9.70
2024-03-30T08:03:45.756Z,13.70
2024-03-30T08:06:12.337Z,15.40
2024-03-30T08:08:38.624Z,12.50
2024-03-30T08:11:05.112Z,8.80
2024-03-30T08:13:31.381Z,16.80
2024-03-30T08:15:57.668Z,12.20
2024-03-30T08:18:23.931Z,10.40
2024-03-30T08:20:50.194Z,13.50
2024-03-30T08:23:16.496Z,11.30
2024-03-30T08:25:42.777Z,13.50
2024-03-30T08:28:11.463Z,12.90
2024-03-30T08:30:37.805Z,13.10
2024-03-30T08:33:04.821Z,12.80
2024-03-30T08:35:31.274Z,10.30
2024-03-30T08:37:57.583Z,6.60
2024-03-30T08:40:23.860Z,11.90
2024-03-30T08:42:50.149Z,12.20
2024-03-30T08:45:18.492Z,9.90
2024-03-30T08:47:45.541Z,11.30
2024-03-30T08:50:11.883Z,14.10
2024-03-30T08:52:38.193Z,9.90
2024-03-30T08:55:05.242Z,11.90
2024-03-30T08:57:31.525Z,13.40
2024-03-30T08:59:57.795Z,5.60
2024-03-30T09:02:24.121Z,17.10
2024-03-30T09:04:50.428Z,24.80
2024-03-30T09:07:17.225Z,23.30
2024-03-30T09:09:43.576Z,23.30
2024-03-30T09:12:09.904Z,17.30
2024-03-30T09:14:36.359Z,69.70
2024-03-30T09:17:05.402Z,25.70
2024-03-30T09:19:31.846Z,22.50
2024-03-30T09:21:58.245Z,29.90
2024-03-30T09:24:24.672Z,24.40
2024-03-30T09:26:51.020Z,12.80
2024-03-30T09:29:17.355Z,14.50
2024-03-30T09:31:44.245Z,10.40
2024-03-30T09:34:12.621Z,16.20
2024-03-30T09:36:40.722Z,19.30
2024-03-30T09:39:07.314Z,18.90
2024-03-30T09:41:48.111Z,18.50
2024-03-30T09:44:14.615Z,12.50
2024-03-30T09:46:45.942Z,15.90
2024-03-30T09:49:15.898Z,14.40
2024-03-30T09:51:45.989Z,14.20
2024-03-30T09:54:13.161Z,12.50
2024-03-30T09:56:46.730Z,17.20
2024-03-30T09:59:14.309Z,15.70
2024-03-30T10:04:07.936Z,12.00
2024-03-30T10:06:46.378Z,9.00
2024-03-30T10:09:15.553Z,14.40
2024-03-30T10:11:46.897Z,15.00
2024-03-30T10:14:34.501Z,12.50
2024-03-30T10:17:02.466Z,14.10
2024-03-30T10:19:33.436Z,13.70
2024-03-30T10:22:00.239Z,17.60
2024-03-30T10:24:28.990Z,25.40
2024-03-30T10:26:55.431Z,18.20
2024-03-30T10:29:21.730Z,15.80
2024-03-30T10:31:48.290Z,16.50
2024-03-30T10:34:14.984Z,11.40
2024-03-30T10:36:41.343Z,13.90
2024-03-30T10:39:07.962Z,19.10
2024-03-30T10:41:34.305Z,11.20
2024-03-30T10:44:00.797Z,17.40
2024-03-30T10:46:28.536Z,19.60
2024-03-30T10:48:55.860Z,20.80
2024-03-30T10:51:24.578Z,14.20
2024-03-30T10:53:51.106Z,19.50
2024-03-30T10:56:21.733Z,18.00
2024-03-30T10:58:50.161Z,18.00
2024-03-30T11:01:18.563Z,18.80
2024-03-30T11:03:45.515Z,15.20
2024-03-30T11:06:14.525Z,16.90
2024-03-30T11:08:42.218Z,22.90
2024-03-30T11:11:08.872Z,18.60
2024-03-30T11:13:35.206Z,13.30
2024-03-30T11:16:01.844Z,14.90
2024-03-30T11:18:44.025Z,15.00
2024-03-30T11:21:21.705Z,17.70
2024-03-30T11:23:57.349Z,15.80
2024-03-30T11:26:25.472Z,13.20
2024-03-30T11:29:18.531Z,19.70
2024-03-30T11:31:50.220Z,20.00
2024-03-30T11:34:22.669Z,16.80
2024-03-30T11:37:01.914Z,15.30
2024-03-30T11:39:32.327Z,21.90
2024-03-30T11:42:12.716Z,18.40
2024-03-30T11:44:40.212Z,17.50
2024-03-30T11:47:07.075Z,18.10
2024-03-30T11:49:33.699Z,21.40
2024-03-30T11:52:00.796Z,17.90
2024-03-30T11:57:23.294Z,16.50
2024-03-30T11:59:54.808Z,16.60
2024-03-30T12:02:23.432Z,17.20
2024-03-30T12:04:49.730Z,16.30
2024-03-30T12:07:20.272Z,19.30
2024-03-30T12:09:49.783Z,23.70
2024-03-30T12:12:24.981Z,23.70
2024-03-30T12:14:54.186Z,19.50
2024-03-30T12:17:20.947Z,23.10
2024-03-30T12:19:51.029Z,25.00
2024-03-30T12:22:23.298Z,22.00
2024-03-30T12:24:51.383Z,13.50
2024-03-30T12:27:20.757Z,17.00
2024-03-30T12:29:47.169Z,18.00
2024-03-30T12:32:13.555Z,24.30
2024-03-30T12:34:39.892Z,14.90
2024-03-30T12:37:06.374Z,21.20
2024-03-30T12:39:33.771Z,15.40
2024-03-30T12:42:00.344Z,22.70
2024-03-30T12:44:27.049Z,18.60
2024-03-30T12:46:53.640Z,20.20
2024-03-30T12:49:19.953Z,24.50
2024-03-30T12:51:47.773Z,19.00
2024-03-30T12:54:15.166Z,20.50
2024-03-30T12:56:41.528Z,12.00
2024-03-30T12:59:08.864Z,17.70
2024-03-30T13:01:35.188Z,20.10
2024-03-30T13:04:02.233Z,21.50
2024-03-30T13:06:29.815Z,18.10
2024-03-30T13:08:57.184Z,17.30
2024-03-30T13:11:24.512Z,16.30
2024-03-30T13:13:52.370Z,23.30
2024-03-30T13:16:19.636Z,22.80
2024-03-30T13:18:46.009Z,17.80
2024-03-30T13:21:14.977Z,20.00
2024-03-30T13:23:41.615Z,19.20
2024-03-30T13:26:07.987Z,21.40
2024-03-30T13:28:34.359Z,19.70
2024-03-30T13:31:00.733Z,19.20
2024-03-30T13:33:27.141Z,19.40
2024-03-30T13:35:53.658Z,21.60
2024-03-30T13:38:20.044Z,21.00
2024-03-30T13:40:46.328Z,12.50
2024-03-30T13:43:12.694Z,17.50
2024-03-30T13:45:39.139Z,18.00
2024-03-30T13:48:06.616Z,14.60
2024-03-30T13:50:33.749Z,22.60
2024-03-30T13:55:28.843Z,13.60
2024-03-30T13:57:56.540Z,16.50
2024-03-30T14:00:23.190Z,18.50
2024-03-30T14:02:50.586Z,11.00
2024-03-30T14:05:17.159Z,10.70
2024-03-30T14:07:43.683Z,18.10
2024-03-30T14:10:10.049Z,13.80
2024-03-30T14:12:36.468Z,10.50
2024-03-30T14:15:06.359Z,21.30
2024-03-30T14:17:34.586Z,16.70
2024-03-30T14:20:00.871Z,14.40
2024-03-30T14:22:27.730Z,14.90
2024-03-30T14:24:54.247Z,8.80
2024-03-30T14:27:20.725Z,15.50
2024-03-30T14:29:47.124Z,14.40
2024-03-30T14:32:14.099Z,12.00
2024-03-30T14:34:40.470Z,10.50
2024-03-30T14:37:12.140Z,11.90
2024-03-30T14:39:38.514Z,14.70
2024-03-30T14:42:05.086Z,12.50
2024-03-30T14:44:31.649Z,13.00
2024-03-30T14:46:58.201Z,19.10
2024-03-30T14:49:24.543Z,15.20
2024-03-30T14:51:50.813Z,17.20
2024-03-30T14:54:17.212Z,17.90
2024-03-30T14:56:43.635Z,13.90
2024-03-30T14:59:11.400Z,12.60
2024-03-30T15:01:37.713Z,13.20
2024-03-30T15:04:04.189Z,18.90
2024-03-30T15:06:34.796Z,10.60
2024-03-30T15:09:01.256Z,16.50
2024-03-30T15:11:27.574Z,10.70
2024-03-30T15:13:53.875Z,16.80
2024-03-30T15:16:20.187Z,14.00
2024-03-30T15:18:46.457Z,18.30
2024-03-30T15:21:12.845Z,12.20
2024-03-30T15:23:40.007Z,15.50
2024-03-30T15:28:32.894Z,14.20
2024-03-30T15:31:18.025Z,15.30
2024-03-30T15:33:45.236Z,18.30
2024-03-30T15:36:11.528Z,17.00
2024-03-30T15:38:37.791Z,12.90
2024-03-30T15:41:04.687Z,11.30
2024-03-30T15:43:31.398Z,10.70
2024-03-30T15:45:59.301Z,14.40
2024-03-30T15:48:27.034Z,11.20
2024-03-30T15:51:06.737Z,12.00
2024-03-30T15:53:35.341Z,16.00
2024-03-30T15:56:03.436Z,15.00
2024-03-30T15:58:33.863Z,14.10
2024-03-30T16:01:08.807Z,19.00
2024-03-30T16:03:36.342Z,13.00
2024-03-30T16:06:06.445Z,13.80
2024-03-30T16:08:33.627Z,10.10
2024-03-30T16:13:29.051Z,14.60
2024-03-30T16:15:56.759Z,12.20
2024-03-30T16:18:23.368Z,8.70
2024-03-30T16:20:49.930Z,9.00
2024-03-30T16:23:17.377Z,11.20
2024-03-30T16:25:43.868Z,15.30
2024-03-30T16:28:10.195Z,14.40
2024-03-30T16:30:38.362Z,18.20
2024-03-30T16:33:05.701Z,14.60
2024-03-30T16:35:35.331Z,12.70
2024-03-30T16:38:01.636Z,13.20
2024-03-30T16:40:28.304Z,10.80
2024-03-30T16:42:54.740Z,12.90
2024-03-30T16:45:21.047Z,14.50
2024-03-30T16:47:50.469Z,13.80
2024-03-30T16:50:18.078Z,10.50
2024-03-30T16:52:45.133Z,25.90
2024-03-30T16:57:38.590Z,21.30
2024-03-30T17:00:07.329Z,12.60
2024-03-30T17:02:34.365Z,16.70
2024-03-30T17:07:27.597Z,14.60
2024-03-30T17:09:54.586Z,12.90
2024-03-30T17:12:21.729Z,13.30
2024-03-30T17:14:48.402Z,13.50
2024-03-30T17:17:14.887Z,19.40
2024-03-30T17:19:41.886Z,13.10
2024-03-30T17:22:08.148Z,18.00
2024-03-30T17:24:34.416Z,18.30
2024-03-30T17:27:00.830Z,13.20
2024-03-30T17:29:27.212Z,10.30
2024-03-30T17:31:53.614Z,8.70
2024-03-30T17:34:19.892Z,13.00
2024-03-30T17:36:46.275Z,14.80
2024-03-30T17:39:12.785Z,30.20
2024-03-30T17:41:41.723Z,12.70
2024-03-30T17:44:08.717Z,12.20
2024-03-30T17:46:35.568Z,15.30
2024-03-30T17:49:01.870Z,16.00
2024-03-30T17:51:28.178Z,11.30
2024-03-30T17:53:54.460Z,11.40
2024-03-30T17:56:20.849Z,13.90
2024-03-30T17:58:47.864Z,16.80
2024-03-30T18:01:22.247Z,17.30
2024-03-30T18:03:53.227Z,16.10
2024-03-30T18:06:20.469Z,17.30
2024-03-30T18:08:48.868Z,15.20
2024-03-30T18:11:15.431Z,8.00
2024-03-30T18:13:42.150Z,14.20
2024-03-30T18:16:10.725Z,11.20
2024-03-30T18:18:38.731Z,16.70
2024-03-30T18:21:05.600Z,18.20
2024-03-30T18:23:33.726Z,11.00
2024-03-30T18:26:01.695Z,9.30
2024-03-30T18:28:28.429Z,18.00
2024-03-30T18:30:55.107Z,13.00
2024-03-30T18:33:22.030Z,19.20
2024-03-30T18:35:48.410Z,11.90
2024-03-30T18:38:14.730Z,11.80
2024-03-30T18:40:43.033Z,9.90
2024-03-30T18:43:10.637Z,13.70
2024-03-30T18:45:46.135Z,16.70
2024-03-30T18:48:13.229Z,11.70
2024-03-30T18:50:41.602Z,8.70
2024-03-30T18:53:08.400Z,14.70
2024-03-30T18:55:34.830Z,11.50
2024-03-30T18:58:01.166Z,7.60
2024-03-30T19:00:30.302Z,10.70
2024-03-30T19:02:56.870Z,12.10
2024-03-30T19:05:23.981Z,7.50
2024-03-30T19:07:50.533Z,11.60
2024-03-30T19:10:16.915Z,10.30
2024-03-30T19:12:43.188Z,10.80
2024-03-30T19:15:09.532Z,14.60
2024-03-30T19:17:36.081Z,16.30
2024-03-30T19:20:04.115Z,15.70
2024-03-30T19:22:31.079Z,10.30
2024-03-30T19:24:57.385Z,8.70
2024-03-30T19:27:23.876Z,11.80
2024-03-30T19:29:53.812Z,14.70
2024-03-30T19:32:20.367Z,10.80
2024-03-30T19:34:49.667Z,13.40
2024-03-30T19:37:16.107Z,7.60
2024-03-30T19:39:42.395Z,10.00
2024-03-30T19:42:09.748Z,11.10
2024-03-30T19:44:36.554Z,8.90
2024-03-30T19:47:03.711Z,10.70
2024-03-30T19:49:30.046Z,7.70
2024-03-30T19:51:56.371Z,9.90
2024-03-30T19:54:22.719Z,13.20
2024-03-30T19:56:51.089Z,10.30
2024-03-30T19:59:17.803Z,10.10
2024-03-30T20:01:44.637Z,10.80
2024-03-30T20:04:11.272Z,9.10
2024-03-30T20:06:38.538Z,20.60
2024-03-30T20:09:05.992Z,10.30
2024-03-30T20:11:35.738Z,9.70
2024-03-30T20:14:03.193Z,11.60
2024-03-30T20:16:29.529Z,16.50
2024-03-30T20:19:00.153Z,15.30
2024-03-30T20:21:27.976Z,12.30
2024-03-30T20:23:54.405Z,11.80
2024-03-30T20:26:20.882Z,17.40
2024-03-30T20:28:47.282Z,11.60
2024-03-30T20:31:13.597Z,12.20
2024-03-30T20:33:40.037Z,13.90
2024-03-30T20:36:09.420Z,12.60
2024-03-30T20:38:36.712Z,10.70
2024-03-30T20:41:13.559Z,10.60
2024-03-30T20:43:41.328Z,14.10
2024-03-30T20:46:09.104Z,13.70
2024-03-30T20:48:36.027Z,10.20
2024-03-30T20:51:03.492Z,11.20
2024-03-30T20:53:32.610Z,12.70
2024-03-30T20:55:58.909Z,14.80
2024-03-30T20:58:25.274Z,11.10
2024-03-30T21:00:51.956Z,14.10
2024-03-30T21:03:18.307Z,10.00
2024-03-30T21:05:44.674Z,11.60
2024-03-30T21:08:11.080Z,10.30
2024-03-30T21:10:41.255Z,14.10
2024-03-30T21:13:07.693Z,8.90
2024-03-30T21:15:35.432Z,10.20
2024-03-30T21:18:01.880Z,15.20
2024-03-30T21:20:29.058Z,14.10
2024-03-30T21:22:56.343Z,11.50
2024-03-30T21:25:22.771Z,11.70
2024-03-30T21:27:49.117Z,13.60
2024-03-30T21:30:15.997Z,9.00
2024-03-30T21:32:44.359Z,9.40
2024-03-30T21:35:11.183Z,10.10
2024-03-30T21:37:39.170Z,8.80
2024-03-30T21:40:06.765Z,8.70
2024-03-30T21:42:33.690Z,6.80
2024-03-30T21:45:00.583Z,10.90
2024-03-30T21:47:29.142Z,9.90
2024-03-30T21:49:56.285Z,10.90
2024-03-30T21:52:23.527Z,5.00
2024-03-30T21:54:50.700Z,12.00
2024-03-30T21:57:17.448Z,10.30
2024-03-30T21:59:45.359Z,11.90
2024-03-30T22:02:12.349Z,11.20
2024-03-30T22:04:39.362Z,11.50
2024-03-30T22:07:06.191Z,9.40
2024-03-30T22:09:32.738Z,9.40
2024-03-30T22:11:59.119Z,12.90
2024-03-30T22:14:26.232Z,10.60
2024-03-30T22:16:52.614Z,12.20
2024-03-30T22:19:19.497Z,13.40
2024-03-30T22:21:46.356Z,11.10
2024-03-30T22:24:13.602Z,11.80
2024-03-30T22:29:09.009Z,9.60
2024-03-30T22:31:36.111Z,13.50
2024-03-30T22:34:03.043Z,6.50
2024-03-30T22:36:29.553Z,10.30
2024-03-30T22:38:56.498Z,12.50
2024-03-30T22:41:24.202Z,12.60
2024-03-30T22:43:53.782Z,11.00
2024-03-30T22:46:20.808Z,9.20
2024-03-30T22:51:15.744Z,9.40
2024-03-30T22:53:42.211Z,11.40
2024-03-30T22:56:10.332Z,12.10
2024-03-30T22:58:38.035Z,13.10
2024-03-30T23:01:08.485Z,10.50
2024-03-30T23:03:34.982Z,10.50
2024-03-30T23:06:03.801Z,8.10
2024-03-30T23:08:31.644Z,12.30
2024-03-30T23:11:03.130Z,9.60
2024-03-30T23:13:31.043Z,11.40
2024-03-30T23:16:00.103Z,10.10
2024-03-30T23:18:29.271Z,10.30
2024-03-30T23:20:56.400Z,8.10
2024-03-30T23:23:24.476Z,12.00
2024-03-30T23:25:52.683Z,8.80
2024-03-30T23:28:20.635Z,12.00
2024-03-30T23:30:47.220Z,9.50
2024-03-30T23:33:14.460Z,11.50
2024-03-30T23:35:41.650Z,10.00
2024-03-30T23:38:08.719Z,10.10
2024-03-30T23:40:35.846Z,9.70
2024-03-30T23:43:03.457Z,8.20
2024-03-30T23:45:30.781Z,12.00
2024-03-30T23:50:24.343Z,10.10
2024-03-30T23:55:22.708Z,9.90
2024-03-30T23:57:49.628Z,16.80
